sensor_id;sensor_type;location;lat;lon;timestamp;pressure;altitude;pressure_sealevel;temperature;humidity
47785;BME280;35233;55.686;37.848;2023-02-14T00:01:12;98538.03;;;11.10;46.35
47785;BME280;35233;55.686;37.848;2023-02-14T00:03:38;98540.47;;;11.15;45.87
47785;BME280;35233;55.686;37.848;2023-02-14T00:06:08;98541.75;;;11.06;45.98
47785;BME280;35233;55.686;37.848;2023-02-14T00:08:35;98552.25;;;11.07;45.78
47785;BME280;35233;55.686;37.848;2023-02-14T00:11:01;98554.69;;;11.12;46.41
47785;BME280;35233;55.686;37.848;2023-02-14T00:13:27;98550.53;;;11.06;46.49
47785;BME280;35233;55.686;37.848;2023-02-14T00:15:54;98547.94;;;11.05;46.22
47785;BME280;35233;55.686;37.848;2023-02-14T00:18:19;98544.06;;;10.95;46.42
47785;BME280;35233;55.686;37.848;2023-02-14T00:20:45;98555.13;;;11.03;46.44
47785;BME280;35233;55.686;37.848;2023-02-14T00:23:10;98557.38;;;11.10;46.35
47785;BME280;35233;55.686;37.848;2023-02-14T00:25:36;98548.09;;;11.02;46.21
47785;BME280;35233;55.686;37.848;2023-02-14T00:28:02;98554.31;;;11.01;46.53
47785;BME280;35233;55.686;37.848;2023-02-14T00:30:27;98556.81;;;11.04;46.27
47785;BME280;35233;55.686;37.848;2023-02-14T00:32:53;98564.69;;;11.05;46.39
47785;BME280;35233;55.686;37.848;2023-02-14T00:35:18;98556.97;;;11.01;46.67
47785;BME280;35233;55.686;37.848;2023-02-14T00:37:47;98558.06;;;10.97;46.39
47785;BME280;35233;55.686;37.848;2023-02-14T00:40:13;98552.69;;;10.98;46.18
47785;BME280;35233;55.686;37.848;2023-02-14T00:42:39;98561.25;;;11.03;46.41
47785;BME280;35233;55.686;37.848;2023-02-14T00:45:05;98559.81;;;10.96;46.86
47785;BME280;35233;55.686;37.848;2023-02-14T00:47:30;98555.41;;;10.97;46.42
47785;BME280;35233;55.686;37.848;2023-02-14T00:49:56;98559.41;;;11.05;46.20
47785;BME280;35233;55.686;37.848;2023-02-14T00:52:28;98572.25;;;11.13;46.47
47785;BME280;35233;55.686;37.848;2023-02-14T00:54:54;98574.03;;;11.13;46.15
47785;BME280;35233;55.686;37.848;2023-02-14T00:57:20;98580.47;;;11.07;46.34
47785;BME280;35233;55.686;37.848;2023-02-14T00:59:46;98577.03;;;11.05;46.51
47785;BME280;35233;55.686;37.848;2023-02-14T01:02:11;98588.59;;;11.02;46.37
47785;BME280;35233;55.686;37.848;2023-02-14T01:04:36;98592.72;;;11.08;46.25
47785;BME280;35233;55.686;37.848;2023-02-14T01:07:02;98583.19;;;11.05;46.33
47785;BME280;35233;55.686;37.848;2023-02-14T01:09:27;98570.97;;;11.03;46.25
47785;BME280;35233;55.686;37.848;2023-02-14T01:11:53;98586.03;;;11.01;46.56
47785;BME280;35233;55.686;37.848;2023-02-14T01:14:18;98585.84;;;11.05;46.47
47785;BME280;35233;55.686;37.848;2023-02-14T01:16:44;98578.81;;;11.04;46.25
47785;BME280;35233;55.686;37.848;2023-02-14T01:19:09;98573.53;;;11.04;46.52
47785;BME280;35233;55.686;37.848;2023-02-14T01:21:35;98586.59;;;11.07;46.69
47785;BME280;35233;55.686;37.848;2023-02-14T01:24:03;98585.91;;;11.04;46.54
47785;BME280;35233;55.686;37.848;2023-02-14T01:26:29;98594.66;;;11.04;46.43
47785;BME280;35233;55.686;37.848;2023-02-14T01:28:55;98588.47;;;11.05;46.51
47785;BME280;35233;55.686;37.848;2023-02-14T01:31:25;98585.75;;;11.07;46.48
47785;BME280;35233;55.686;37.848;2023-02-14T01:33:52;98584.19;;;11.03;46.18
47785;BME280;35233;55.686;37.848;2023-02-14T01:36:32;98592.41;;;10.97;46.75
47785;BME280;35233;55.686;37.848;2023-02-14T01:39:02;98602.75;;;11.01;46.59
47785;BME280;35233;55.686;37.848;2023-02-14T01:41:31;98603.53;;;11.03;46.65
47785;BME280;35233;55.686;37.848;2023-02-14T01:46:27;98602.69;;;11.03;46.94
47785;BME280;35233;55.686;37.848;2023-02-14T01:49:17;98601.81;;;11.02;46.47
47785;BME280;35233;55.686;37.848;2023-02-14T01:52:06;98613.69;;;11.13;46.25
47785;BME280;35233;55.686;37.848;2023-02-14T01:54:36;98611.25;;;11.08;46.52
47785;BME280;35233;55.686;37.848;2023-02-14T01:57:05;98601.47;;;11.10;46.36
47785;BME280;35233;55.686;37.848;2023-02-14T01:59:37;98613.03;;;11.07;46.46
47785;BME280;35233;55.686;37.848;2023-02-14T02:02:06;98604.44;;;11.02;46.48
47785;BME280;35233;55.686;37.848;2023-02-14T02:04:39;98613.97;;;11.06;46.57
47785;BME280;35233;55.686;37.848;2023-02-14T02:07:09;98612.97;;;11.09;46.85
47785;BME280;35233;55.686;37.848;2023-02-14T02:09:52;98614.81;;;11.07;46.51
47785;BME280;35233;55.686;37.848;2023-02-14T02:12:19;98614.16;;;11.02;46.93
47785;BME280;35233;55.686;37.848;2023-02-14T02:14:46;98620.06;;;11.08;46.68
47785;BME280;35233;55.686;37.848;2023-02-14T02:17:24;98612.72;;;11.14;46.45
47785;BME280;35233;55.686;37.848;2023-02-14T02:31:23;98626.53;;;11.01;46.72
47785;BME280;35233;55.686;37.848;2023-02-14T02:39:22;98621.56;;;11.14;46.45
47785;BME280;35233;55.686;37.848;2023-02-14T02:47:21;98607.25;;;10.99;46.54
47785;BME280;35233;55.686;37.848;2023-02-14T02:50:01;98630.53;;;11.10;45.90
47785;BME280;35233;55.686;37.848;2023-02-14T02:52:59;98620.97;;;11.07;46.02
47785;BME280;35233;55.686;37.848;2023-02-14T02:56:02;98626.91;;;11.13;46.16
47785;BME280;35233;55.686;37.848;2023-02-14T02:59:01;98624.53;;;11.06;46.49
47785;BME280;35233;55.686;37.848;2023-02-14T03:01:39;98614.16;;;11.02;46.73
47785;BME280;35233;55.686;37.848;2023-02-14T03:04:09;98634.25;;;11.06;46.55
47785;BME280;35233;55.686;37.848;2023-02-14T03:06:54;98631.81;;;11.01;46.69
47785;BME280;35233;55.686;37.848;2023-02-14T03:20:13;98640.16;;;11.11;46.97
47785;BME280;35233;55.686;37.848;2023-02-14T03:28:19;98641.19;;;11.08;46.71
47785;BME280;35233;55.686;37.848;2023-02-14T03:31:00;98640.53;;;11.03;46.97
47785;BME280;35233;55.686;37.848;2023-02-14T03:33:32;98634.31;;;11.04;46.68
47785;BME280;35233;55.686;37.848;2023-02-14T03:36:05;98642.09;;;11.07;46.83
47785;BME280;35233;55.686;37.848;2023-02-14T03:38:44;98641.03;;;11.12;46.82
47785;BME280;35233;55.686;37.848;2023-02-14T03:41:13;98657.19;;;11.05;46.98
47785;BME280;35233;55.686;37.848;2023-02-14T03:44:08;98652.66;;;11.07;46.66
47785;BME280;35233;55.686;37.848;2023-02-14T03:49:25;98654.41;;;11.08;46.61
47785;BME280;35233;55.686;37.848;2023-02-14T03:51:55;98657.19;;;11.05;47.00
47785;BME280;35233;55.686;37.848;2023-02-14T03:54:23;98651.25;;;11.00;46.89
47785;BME280;35233;55.686;37.848;2023-02-14T03:59:43;98659.84;;;11.05;47.33
47785;BME280;35233;55.686;37.848;2023-02-14T04:02:31;98667.69;;;11.07;46.93
47785;BME280;35233;55.686;37.848;2023-02-14T04:05:06;98650.53;;;10.97;47.35
47785;BME280;35233;55.686;37.848;2023-02-14T04:07:46;98662.59;;;11.02;47.31
47785;BME280;35233;55.686;37.848;2023-02-14T04:10:13;98669.53;;;11.05;47.31
47785;BME280;35233;55.686;37.848;2023-02-14T04:12:39;98669.53;;;11.05;47.10
47785;BME280;35233;55.686;37.848;2023-02-14T04:15:05;98668.53;;;11.07;47.10
47785;BME280;35233;55.686;37.848;2023-02-14T04:17:30;98665.31;;;11.01;47.06
47785;BME280;35233;55.686;37.848;2023-02-14T04:20:14;98667.03;;;11.02;47.13
47785;BME280;35233;55.686;37.848;2023-02-14T04:22:40;98664.25;;;11.05;47.19
47785;BME280;35233;55.686;37.848;2023-02-14T04:25:06;98666.25;;;11.00;47.15
47785;BME280;35233;55.686;37.848;2023-02-14T04:27:31;98673.91;;;11.06;47.07
47785;BME280;35233;55.686;37.848;2023-02-14T04:29:57;98680.97;;;11.05;47.53
47785;BME280;35233;55.686;37.848;2023-02-14T04:32:22;98682.97;;;11.00;47.45
47785;BME280;35233;55.686;37.848;2023-02-14T04:34:48;98678.41;;;11.04;47.35
47785;BME280;35233;55.686;37.848;2023-02-14T04:37:16;98687.31;;;11.01;47.13
47785;BME280;35233;55.686;37.848;2023-02-14T04:39:42;98683.53;;;11.07;47.20
47785;BME280;35233;55.686;37.848;2023-02-14T04:42:08;98691.75;;;11.01;47.32
47785;BME280;35233;55.686;37.848;2023-02-14T04:44:33;98675.25;;;10.96;47.32
47785;BME280;35233;55.686;37.848;2023-02-14T04:47:00;98694.38;;;11.01;47.33
47785;BME280;35233;55.686;37.848;2023-02-14T04:49:26;98696.84;;;11.05;47.28
47785;BME280;35233;55.686;37.848;2023-02-14T04:51:51;98697.09;;;10.99;47.50
47785;BME280;35233;55.686;37.848;2023-02-14T04:54:16;98705.03;;;10.99;47.67
47785;BME280;35233;55.686;37.848;2023-02-14T04:56:42;98706.69;;;11.40;46.78
47785;BME280;35233;55.686;37.848;2023-02-14T04:59:08;98707.13;;;11.12;47.66
47785;BME280;35233;55.686;37.848;2023-02-14T05:01:34;98723.03;;;11.10;47.79
47785;BME280;35233;55.686;37.848;2023-02-14T05:03:59;98723.03;;;11.10;47.39
47785;BME280;35233;55.686;37.848;2023-02-14T05:06:25;98725.69;;;11.10;47.39
47785;BME280;35233;55.686;37.848;2023-02-14T05:08:50;98729.69;;;11.19;47.63
47785;BME280;35233;55.686;37.848;2023-02-14T05:11:16;98732.63;;;11.13;47.43
47785;BME280;35233;55.686;37.848;2023-02-14T05:13:41;98747.53;;;11.14;47.26
47785;BME280;35233;55.686;37.848;2023-02-14T05:16:07;98741.50;;;11.12;47.38
47785;BME280;35233;55.686;37.848;2023-02-14T05:18:32;98748.28;;;11.17;47.40
47785;BME280;35233;55.686;37.848;2023-02-14T05:20:58;98739.56;;;11.15;47.20
47785;BME280;35233;55.686;37.848;2023-02-14T05:23:23;98737.91;;;11.13;47.11
47785;BME280;35233;55.686;37.848;2023-02-14T05:25:50;98746.78;;;11.12;46.97
47785;BME280;35233;55.686;37.848;2023-02-14T05:28:17;98750.03;;;11.17;47.25
47785;BME280;35233;55.686;37.848;2023-02-14T05:30:44;98754.47;;;11.16;47.28
47785;BME280;35233;55.686;37.848;2023-02-14T05:33:09;98753.28;;;11.23;46.72
47785;BME280;35233;55.686;37.848;2023-02-14T05:35:35;98754.47;;;11.16;47.06
47785;BME280;35233;55.686;37.848;2023-02-14T05:38:00;98764.59;;;11.46;46.78
47785;BME280;35233;55.686;37.848;2023-02-14T05:40:26;98749.63;;;13.88;44.73
47785;BME280;35233;55.686;37.848;2023-02-14T05:42:53;98748.88;;;14.78;42.79
47785;BME280;35233;55.686;37.848;2023-02-14T05:45:18;98751.38;;;15.38;41.81
47785;BME280;35233;55.686;37.848;2023-02-14T05:47:44;98755.63;;;15.55;41.52
47785;BME280;35233;55.686;37.848;2023-02-14T05:50:11;98755.06;;;15.65;41.32
47785;BME280;35233;55.686;37.848;2023-02-14T05:52:36;98755.16;;;15.92;41.06
47785;BME280;35233;55.686;37.848;2023-02-14T05:55:03;98750.19;;;16.00;40.61
47785;BME280;35233;55.686;37.848;2023-02-14T05:57:29;98753.34;;;16.19;40.16
47785;BME280;35233;55.686;37.848;2023-02-14T05:59:55;98749.22;;;16.28;39.88
47785;BME280;35233;55.686;37.848;2023-02-14T06:02:20;98758.75;;;16.32;39.68
47785;BME280;35233;55.686;37.848;2023-02-14T06:04:45;98758.00;;;16.43;39.70
47785;BME280;35233;55.686;37.848;2023-02-14T06:07:11;98755.19;;;16.59;39.58
47785;BME280;35233;55.686;37.848;2023-02-14T06:09:36;98742.69;;;16.59;39.38
47785;BME280;35233;55.686;37.848;2023-02-14T06:12:02;98765.47;;;16.78;39.13
47785;BME280;35233;55.686;37.848;2023-02-14T06:14:28;98766.25;;;16.92;38.79
47785;BME280;35233;55.686;37.848;2023-02-14T06:16:53;98750.69;;;16.99;38.68
47785;BME280;35233;55.686;37.848;2023-02-14T06:19:19;98757.28;;;17.06;38.65
47785;BME280;35233;55.686;37.848;2023-02-14T06:21:44;98740.75;;;17.01;38.33
47785;BME280;35233;55.686;37.848;2023-02-14T06:24:10;98759.53;;;17.38;37.87
47785;BME280;35233;55.686;37.848;2023-02-14T06:26:35;98762.63;;;17.45;37.72
47785;BME280;35233;55.686;37.848;2023-02-14T06:29:01;98755.06;;;17.51;37.41
47785;BME280;35233;55.686;37.848;2023-02-14T06:31:27;98761.00;;;17.55;37.09
47785;BME280;35233;55.686;37.848;2023-02-14T06:33:54;98761.34;;;17.63;36.76
47785;BME280;35233;55.686;37.848;2023-02-14T06:36:20;98769.75;;;17.70;36.66
47785;BME280;35233;55.686;37.848;2023-02-14T06:38:46;98774.38;;;17.80;36.61
47785;BME280;35233;55.686;37.848;2023-02-14T06:41:12;98761.00;;;17.80;36.34
47785;BME280;35233;55.686;37.848;2023-02-14T06:43:39;98768.00;;;17.94;36.18
47785;BME280;35233;55.686;37.848;2023-02-14T06:46:05;98771.09;;;18.01;36.05
47785;BME280;35233;55.686;37.848;2023-02-14T06:48:31;98773.53;;;18.04;35.75
47785;BME280;35233;55.686;37.848;2023-02-14T06:50:57;98777.06;;;18.04;35.76
47785;BME280;35233;55.686;37.848;2023-02-14T06:53:23;98773.94;;;18.10;35.69
47785;BME280;35233;55.686;37.848;2023-02-14T06:55:48;98773.09;;;18.10;35.46
47785;BME280;35233;55.686;37.848;2023-02-14T06:58:14;98784.94;;;18.19;35.51
47785;BME280;35233;55.686;37.848;2023-02-14T07:00:40;98778.28;;;18.24;35.25
47785;BME280;35233;55.686;37.848;2023-02-14T07:03:06;98788.56;;;18.18;35.27
47785;BME280;35233;55.686;37.848;2023-02-14T07:05:32;98796.16;;;18.24;35.23
47785;BME280;35233;55.686;37.848;2023-02-14T07:07:57;98799.09;;;18.32;34.96
47785;BME280;35233;55.686;37.848;2023-02-14T07:10:23;98798.75;;;18.37;34.91
47785;BME280;35233;55.686;37.848;2023-02-14T07:12:49;98793.63;;;18.33;34.76
47785;BME280;35233;55.686;37.848;2023-02-14T07:15:14;98798.34;;;18.54;34.71
47785;BME280;35233;55.686;37.848;2023-02-14T07:17:40;98804.63;;;18.66;34.36
47785;BME280;35233;55.686;37.848;2023-02-14T07:20:09;98803.34;;;18.59;34.47
47785;BME280;35233;55.686;37.848;2023-02-14T07:22:37;98808.94;;;18.55;34.42
47785;BME280;35233;55.686;37.848;2023-02-14T07:25:04;98815.41;;;18.64;34.32
47785;BME280;35233;55.686;37.848;2023-02-14T07:27:30;98807.38;;;18.64;34.26
47785;BME280;35233;55.686;37.848;2023-02-14T07:29:55;98825.16;;;18.65;34.16
47785;BME280;35233;55.686;37.848;2023-02-14T07:32:21;98806.78;;;18.61;34.03
47785;BME280;35233;55.686;37.848;2023-02-14T07:34:48;98820.19;;;18.72;34.18
47785;BME280;35233;55.686;37.848;2023-02-14T07:37:13;98821.59;;;18.77;33.85
47785;BME280;35233;55.686;37.848;2023-02-14T07:39:39;98826.38;;;18.85;33.97
47785;BME280;35233;55.686;37.848;2023-02-14T07:42:05;98822.72;;;18.86;33.74
47785;BME280;35233;55.686;37.848;2023-02-14T07:44:32;98827.59;;;18.92;33.58
47785;BME280;35233;55.686;37.848;2023-02-14T07:46:58;98836.44;;;19.06;33.59
47785;BME280;35233;55.686;37.848;2023-02-14T07:49:23;98841.53;;;19.09;33.71
47785;BME280;35233;55.686;37.848;2023-02-14T07:51:48;98846.16;;;19.07;33.98
47785;BME280;35233;55.686;37.848;2023-02-14T07:54:14;98850.94;;;18.05;35.41
47785;BME280;35233;55.686;37.848;2023-02-14T07:56:39;98855.53;;;17.27;36.61
47785;BME280;35233;55.686;37.848;2023-02-14T07:59:05;98851.97;;;16.73;37.17
47785;BME280;35233;55.686;37.848;2023-02-14T08:01:31;98864.28;;;16.35;37.90
47785;BME280;35233;55.686;37.848;2023-02-14T08:03:57;98864.22;;;16.22;38.10
47785;BME280;35233;55.686;37.848;2023-02-14T08:06:22;98861.94;;;16.16;37.98
47785;BME280;35233;55.686;37.848;2023-02-14T08:08:50;98851.56;;;16.11;38.20
47785;BME280;35233;55.686;37.848;2023-02-14T08:11:16;98862.53;;;15.92;38.52
47785;BME280;35233;55.686;37.848;2023-02-14T08:14:02;98870.94;;;15.86;38.67
47785;BME280;35233;55.686;37.848;2023-02-14T08:16:28;98863.59;;;15.75;38.91
47785;BME280;35233;55.686;37.848;2023-02-14T08:18:54;98856.41;;;15.47;39.15
47785;BME280;35233;55.686;37.848;2023-02-14T08:21:19;98877.63;;;15.49;39.27
47785;BME280;35233;55.686;37.848;2023-02-14T08:23:45;98874.56;;;15.40;39.48
47785;BME280;35233;55.686;37.848;2023-02-14T08:26:10;98872.72;;;15.27;39.71
47785;BME280;35233;55.686;37.848;2023-02-14T08:28:36;98878.72;;;15.16;39.94
47785;BME280;35233;55.686;37.848;2023-02-14T08:31:02;98875.91;;;15.03;40.11
47785;BME280;35233;55.686;37.848;2023-02-14T08:33:28;98887.25;;;15.07;40.14
47785;BME280;35233;55.686;37.848;2023-02-14T08:35:54;98871.13;;;14.94;40.26
47785;BME280;35233;55.686;37.848;2023-02-14T08:38:20;98890.53;;;14.96;40.15
47785;BME280;35233;55.686;37.848;2023-02-14T08:40:45;98895.03;;;15.10;40.00
47785;BME280;35233;55.686;37.848;2023-02-14T08:43:11;98901.81;;;15.15;40.29
47785;BME280;35233;55.686;37.848;2023-02-14T08:45:38;98903.94;;;15.09;40.31
47785;BME280;35233;55.686;37.848;2023-02-14T08:48:05;98898.69;;;14.93;40.56
47785;BME280;35233;55.686;37.848;2023-02-14T08:50:32;98902.13;;;14.79;40.58
47785;BME280;35233;55.686;37.848;2023-02-14T08:52:58;98902.81;;;14.83;40.55
47785;BME280;35233;55.686;37.848;2023-02-14T08:55:24;98908.97;;;14.83;40.63
47785;BME280;35233;55.686;37.848;2023-02-14T08:57:49;98916.28;;;14.80;40.70
47785;BME280;35233;55.686;37.848;2023-02-14T09:00:15;98917.41;;;14.76;40.68
47785;BME280;35233;55.686;37.848;2023-02-14T09:02:41;98918.34;;;14.75;40.54
47785;BME280;35233;55.686;37.848;2023-02-14T09:05:06;98919.63;;;14.67;40.90
47785;BME280;35233;55.686;37.848;2023-02-14T09:07:34;98931.91;;;14.70;40.84
47785;BME280;35233;55.686;37.848;2023-02-14T09:09:59;98922.97;;;14.71;40.81
47785;BME280;35233;55.686;37.848;2023-02-14T09:12:25;98945.09;;;14.71;40.59
47785;BME280;35233;55.686;37.848;2023-02-14T09:14:51;98925.03;;;14.66;40.77
47785;BME280;35233;55.686;37.848;2023-02-14T09:17:17;98944.06;;;14.74;40.63
47785;BME280;35233;55.686;37.848;2023-02-14T09:19:43;98932.25;;;14.64;40.79
47785;BME280;35233;55.686;37.848;2023-02-14T09:22:09;98928.13;;;14.58;40.97
47785;BME280;35233;55.686;37.848;2023-02-14T09:24:37;98944.09;;;14.58;41.01
47785;BME280;35233;55.686;37.848;2023-02-14T09:27:03;98938.78;;;14.58;41.03
47785;BME280;35233;55.686;37.848;2023-02-14T09:29:29;98949.13;;;14.63;40.71
47785;BME280;35233;55.686;37.848;2023-02-14T09:31:58;98948.28;;;14.62;40.89
47785;BME280;35233;55.686;37.848;2023-02-14T09:34:25;98960.97;;;14.57;41.09
47785;BME280;35233;55.686;37.848;2023-02-14T09:37:10;98965.22;;;14.44;41.16
47785;BME280;35233;55.686;37.848;2023-02-14T09:39:54;98962.69;;;14.25;41.47
47785;BME280;35233;55.686;37.848;2023-02-14T09:50:47;98984.13;;;13.89;42.53
47785;BME280;35233;55.686;37.848;2023-02-14T09:53:17;98988.28;;;13.77;42.74
47785;BME280;35233;55.686;37.848;2023-02-14T09:59:14;98995.94;;;13.66;42.95
47785;BME280;35233;55.686;37.848;2023-02-14T10:01:50;98999.91;;;13.74;42.81
47785;BME280;35233;55.686;37.848;2023-02-14T10:04:39;99008.19;;;13.86;42.65
47785;BME280;35233;55.686;37.848;2023-02-14T10:07:19;99011.91;;;13.99;42.52
47785;BME280;35233;55.686;37.848;2023-02-14T10:14:44;99017.78;;;13.88;42.67
47785;BME280;35233;55.686;37.848;2023-02-14T10:17:24;99018.69;;;14.04;42.37
47785;BME280;35233;55.686;37.848;2023-02-14T10:20:01;99017.03;;;14.02;42.57
47785;BME280;35233;55.686;37.848;2023-02-14T10:22:58;99014.34;;;13.86;42.85
47785;BME280;35233;55.686;37.848;2023-02-14T10:25:43;99030.59;;;13.97;42.47
47785;BME280;35233;55.686;37.848;2023-02-14T10:28:12;99031.53;;;13.96;42.81
47785;BME280;35233;55.686;37.848;2023-02-14T10:31:13;99011.69;;;13.86;42.77
47785;BME280;35233;55.686;37.848;2023-02-14T10:33:31;99009.34;;;13.80;42.88
47785;BME280;35233;55.686;37.848;2023-02-14T10:36:04;99038.25;;;13.86;42.92
47785;BME280;35233;55.686;37.848;2023-02-14T10:38:46;99042.31;;;13.93;42.75
47785;BME280;35233;55.686;37.848;2023-02-14T10:46:38;99048.88;;;14.19;41.89
47785;BME280;35233;55.686;37.848;2023-02-14T10:54:54;99066.56;;;14.20;42.15
47785;BME280;35233;55.686;37.848;2023-02-14T10:57:28;99057.13;;;14.15;42.08
47785;BME280;35233;55.686;37.848;2023-02-14T11:00:10;99073.13;;;13.96;42.58
47785;BME280;35233;55.686;37.848;2023-02-14T11:02:45;99073.88;;;13.82;42.77
47785;BME280;35233;55.686;37.848;2023-02-14T11:05:45;99056.59;;;13.73;42.82
47785;BME280;35233;55.686;37.848;2023-02-14T11:10:45;99079.94;;;13.84;42.59
47785;BME280;35233;55.686;37.848;2023-02-14T11:13:32;99078.91;;;13.87;42.66
47785;BME280;35233;55.686;37.848;2023-02-14T11:15:59;99082.16;;;13.76;42.90
47785;BME280;35233;55.686;37.848;2023-02-14T11:18:27;99091.03;;;13.75;42.84
47785;BME280;35233;55.686;37.848;2023-02-14T11:23:41;99096.00;;;13.64;42.81
47785;BME280;35233;55.686;37.848;2023-02-14T11:26:24;99110.22;;;13.63;42.75
47785;BME280;35233;55.686;37.848;2023-02-14T11:28:59;99097.97;;;13.60;42.81
47785;BME280;35233;55.686;37.848;2023-02-14T11:31:34;99101.31;;;13.64;42.78
47785;BME280;35233;55.686;37.848;2023-02-14T11:34:02;99085.81;;;13.37;43.04
47785;BME280;35233;55.686;37.848;2023-02-14T11:36:29;99089.91;;;13.44;42.94
47785;BME280;35233;55.686;37.848;2023-02-14T11:39:05;99138.63;;;13.61;42.97
47785;BME280;35233;55.686;37.848;2023-02-14T11:41:55;99126.22;;;13.61;42.96
47785;BME280;35233;55.686;37.848;2023-02-14T11:44:26;99117.47;;;13.59;43.31
47785;BME280;35233;55.686;37.848;2023-02-14T11:46:54;99126.81;;;13.49;43.11
47785;BME280;35233;55.686;37.848;2023-02-14T11:51:49;99137.78;;;13.60;43.03
47785;BME280;35233;55.686;37.848;2023-02-14T11:54:29;99140.63;;;13.55;43.23
47785;BME280;35233;55.686;37.848;2023-02-14T11:57:02;99133.16;;;13.64;43.01
47785;BME280;35233;55.686;37.848;2023-02-14T11:59:43;99145.44;;;13.66;42.92
47785;BME280;35233;55.686;37.848;2023-02-14T12:04:48;99148.16;;;13.65;42.78
47785;BME280;35233;55.686;37.848;2023-02-14T12:07:18;99160.00;;;13.57;42.89
47785;BME280;35233;55.686;37.848;2023-02-14T12:09:46;99142.88;;;13.46;42.98
47785;BME280;35233;55.686;37.848;2023-02-14T12:12:33;99163.91;;;13.50;43.11
47785;BME280;35233;55.686;37.848;2023-02-14T12:17:46;99166.06;;;13.42;43.05
47785;BME280;35233;55.686;37.848;2023-02-14T12:20:25;99180.22;;;13.60;42.86
47785;BME280;35233;55.686;37.848;2023-02-14T12:23:19;99186.97;;;13.67;42.68
47785;BME280;35233;55.686;37.848;2023-02-14T12:28:42;99192.72;;;13.58;43.00
47785;BME280;35233;55.686;37.848;2023-02-14T12:31:11;99206.94;;;13.38;43.33
47785;BME280;35233;55.686;37.848;2023-02-14T12:33:37;99209.81;;;13.33;43.63
47785;BME280;35233;55.686;37.848;2023-02-14T12:39:11;99225.16;;;13.27;43.85
47785;BME280;35233;55.686;37.848;2023-02-14T12:44:46;99205.75;;;13.25;43.85
47785;BME280;35233;55.686;37.848;2023-02-14T12:55:39;99241.72;;;13.11;44.45
47785;BME280;35233;55.686;37.848;2023-02-14T13:06:33;99253.59;;;13.03;44.70
47785;BME280;35233;55.686;37.848;2023-02-14T13:09:25;99253.81;;;12.98;44.99
47785;BME280;35233;55.686;37.848;2023-02-14T13:12:04;99258.41;;;12.95;44.82
47785;BME280;35233;55.686;37.848;2023-02-14T13:15:05;99263.75;;;12.93;44.90
47785;BME280;35233;55.686;37.848;2023-02-14T13:23:15;99278.09;;;12.89;45.11
47785;BME280;35233;55.686;37.848;2023-02-14T13:25:48;99289.53;;;12.89;45.11
47785;BME280;35233;55.686;37.848;2023-02-14T13:28:15;99299.28;;;12.89;45.17
47785;BME280;35233;55.686;37.848;2023-02-14T13:30:43;99287.31;;;12.80;45.32
47785;BME280;35233;55.686;37.848;2023-02-14T13:36:00;99308.50;;;12.80;45.63
47785;BME280;35233;55.686;37.848;2023-02-14T13:38:27;99323.28;;;12.86;45.35
47785;BME280;35233;55.686;37.848;2023-02-14T13:40:56;99318.16;;;12.81;45.31
47785;BME280;35233;55.686;37.848;2023-02-14T13:49:29;99345.75;;;12.77;45.29
47785;BME280;35233;55.686;37.848;2023-02-14T13:52:01;99345.63;;;12.80;45.27
47785;BME280;35233;55.686;37.848;2023-02-14T13:54:41;99341.34;;;12.76;45.26
47785;BME280;35233;55.686;37.848;2023-02-14T13:57:27;99354.47;;;12.79;45.26
47785;BME280;35233;55.686;37.848;2023-02-14T14:02:50;99364.22;;;12.79;45.43
47785;BME280;35233;55.686;37.848;2023-02-14T14:10:53;99370.03;;;12.66;45.67
47785;BME280;35233;55.686;37.848;2023-02-14T14:18:56;99391.38;;;12.63;46.02
47785;BME280;35233;55.686;37.848;2023-02-14T14:21:34;99391.50;;;12.60;45.86
47785;BME280;35233;55.686;37.848;2023-02-14T14:26:46;99398.50;;;12.61;45.94
47785;BME280;35233;55.686;37.848;2023-02-14T14:31:56;99394.19;;;12.59;46.16
47785;BME280;35233;55.686;37.848;2023-02-14T14:34:26;99392.84;;;12.49;45.75
47785;BME280;35233;55.686;37.848;2023-02-14T14:37:13;99419.91;;;12.57;46.17
47785;BME280;35233;55.686;37.848;2023-02-14T14:39:39;99414.91;;;12.49;46.03
47785;BME280;35233;55.686;37.848;2023-02-14T14:42:13;99430.72;;;12.51;45.92
47785;BME280;35233;55.686;37.848;2023-02-14T14:44:46;99417.81;;;12.43;46.46
47785;BME280;35233;55.686;37.848;2023-02-14T14:47:17;99435.28;;;12.47;46.48
47785;BME280;35233;55.686;37.848;2023-02-14T14:49:44;99452.84;;;12.50;46.50
47785;BME280;35233;55.686;37.848;2023-02-14T14:52:37;99437.44;;;12.37;47.03
47785;BME280;35233;55.686;37.848;2023-02-14T14:55:06;99435.38;;;12.45;46.88
47785;BME280;35233;55.686;37.848;2023-02-14T14:57:37;99444.06;;;12.49;46.63
47785;BME280;35233;55.686;37.848;2023-02-14T15:05:31;99462.09;;;12.39;46.64
47785;BME280;35233;55.686;37.848;2023-02-14T15:13:18;99447.31;;;12.34;46.54
47785;BME280;35233;55.686;37.848;2023-02-14T15:16:04;99461.09;;;12.42;46.45
47785;BME280;35233;55.686;37.848;2023-02-14T15:18:31;99479.09;;;12.34;46.30
47785;BME280;35233;55.686;37.848;2023-02-14T15:20:58;99477.34;;;12.33;46.17
47785;BME280;35233;55.686;37.848;2023-02-14T15:23:24;99479.03;;;12.35;46.21
47785;BME280;35233;55.686;37.848;2023-02-14T15:25:50;99469.53;;;12.30;46.17
47785;BME280;35233;55.686;37.848;2023-02-14T15:28:31;99484.44;;;12.32;46.01
47785;BME280;35233;55.686;37.848;2023-02-14T15:31:00;99492.34;;;12.34;46.03
47785;BME280;35233;55.686;37.848;2023-02-14T15:33:27;99495.09;;;12.31;45.76
47785;BME280;35233;55.686;37.848;2023-02-14T15:35:55;99490.09;;;12.23;45.56
47785;BME280;35233;55.686;37.848;2023-02-14T15:38:22;99493.94;;;12.14;46.02
47785;BME280;35233;55.686;37.848;2023-02-14T15:40:49;99506.69;;;12.28;45.74
47785;BME280;35233;55.686;37.848;2023-02-14T15:45:54;99535.00;;;12.26;46.00